sensor_id;sensor_type;location;lat;lon;timestamp;P1;durP1;ratioP1;P2;durP2;ratioP2
80101;SDS011;69407;44.966;19.622;2023-05-17T00:01:30;19.17;;;8.90;;
80101;SDS011;69407;44.966;19.622;2023-05-17T00:03:55;17.67;;;9.30;;
80101;SDS011;69407;44.966;19.622;2023-05-17T00:06:21;15.73;;;9.05;;
80101;SDS011;69407;44.966;19.622;2023-05-17T00:08:46;14.70;;;8.40;;
80101;SDS011;69407;44.966;19.622;2023-05-17T00:11:12;12.77;;;8.18;;
80101;SDS011;69407;44.966;19.622;2023-05-17T00:13:37;18.42;;;9.02;;
80101;SDS011;69407;44.966;19.622;2023-05-17T00:16:05;15.10;;;8.13;;
80101;SDS011;69407;44.966;19.622;2023-05-17T00:18:31;16.38;;;9.30;;
80101;SDS011;69407;44.966;19.622;2023-05-17T00:20:56;13.98;;;9.13;;
80101;SDS011;69407;44.966;19.622;2023-05-17T00:23:22;14.18;;;8.55;;
80101;SDS011;69407;44.966;19.622;2023-05-17T00:25:47;16.25;;;8.82;;
80101;SDS011;69407;44.966;19.622;2023-05-17T00:28:13;13.73;;;8.77;;
80101;SDS011;69407;44.966;19.622;2023-05-17T00:30:38;15.73;;;8.15;;
80101;SDS011;69407;44.966;19.622;2023-05-17T00:33:03;14.05;;;9.13;;
80101;SDS011;69407;44.966;19.622;2023-05-17T00:35:29;16.63;;;8.60;;
80101;SDS011;69407;44.966;19.622;2023-05-17T00:37:55;13.25;;;8.05;;
80101;SDS011;69407;44.966;19.622;2023-05-17T00:40:20;23.15;;;9.48;;
80101;SDS011;69407;44.966;19.622;2023-05-17T00:42:46;16.27;;;8.43;;
80101;SDS011;69407;44.966;19.622;2023-05-17T00:45:12;14.98;;;8.65;;
80101;SDS011;69407;44.966;19.622;2023-05-17T00:47:37;19.10;;;8.82;;
80101;SDS011;69407;44.966;19.622;2023-05-17T00:50:03;16.08;;;8.05;;
80101;SDS011;69407;44.966;19.622;2023-05-17T00:52:30;16.73;;;9.15;;
80101;SDS011;69407;44.966;19.622;2023-05-17T00:54:56;15.20;;;7.45;;
80101;SDS011;69407;44.966;19.622;2023-05-17T00:57:21;18.08;;;7.88;;
80101;SDS011;69407;44.966;19.622;2023-05-17T00:59:46;17.23;;;8.95;;
80101;SDS011;69407;44.966;19.622;2023-05-17T01:02:13;13.23;;;7.93;;
80101;SDS011;69407;44.966;19.622;2023-05-17T01:04:38;16.33;;;7.82;;
80101;SDS011;69407;44.966;19.622;2023-05-17T01:07:05;14.88;;;8.48;;
80101;SDS011;69407;44.966;19.622;2023-05-17T01:09:31;15.27;;;9.10;;
80101;SDS011;69407;44.966;19.622;2023-05-17T01:14:55;19.55;;;10.00;;
80101;SDS011;69407;44.966;19.622;2023-05-17T01:26:05;16.92;;;9.70;;
80101;SDS011;69407;44.966;19.622;2023-05-17T01:28:36;18.77;;;9.27;;
80101;SDS011;69407;44.966;19.622;2023-05-17T01:31:03;16.65;;;9.65;;
80101;SDS011;69407;44.966;19.622;2023-05-17T01:33:29;12.90;;;9.27;;
80101;SDS011;69407;44.966;19.622;2023-05-17T01:35:55;13.23;;;8.52;;
80101;SDS011;69407;44.966;19.622;2023-05-17T01:38:21;16.60;;;10.43;;
80101;SDS011;69407;44.966;19.622;2023-05-17T01:40:47;15.43;;;9.00;;
80101;SDS011;69407;44.966;19.622;2023-05-17T01:43:21;19.13;;;9.00;;
80101;SDS011;69407;44.966;19.622;2023-05-17T01:46:53;21.90;;;11.40;;
80101;SDS011;69407;44.966;19.622;2023-05-17T01:54:19;18.83;;;9.23;;
80101;SDS011;69407;44.966;19.622;2023-05-17T01:56:47;14.73;;;8.10;;
80101;SDS011;69407;44.966;19.622;2023-05-17T01:59:25;16.40;;;8.85;;
80101;SDS011;69407;44.966;19.622;2023-05-17T02:01:57;18.30;;;8.57;;
80101;SDS011;69407;44.966;19.622;2023-05-17T02:04:30;15.27;;;7.85;;
80101;SDS011;69407;44.966;19.622;2023-05-17T02:06:56;14.73;;;9.73;;
80101;SDS011;69407;44.966;19.622;2023-05-17T02:09:21;15.50;;;7.30;;
80101;SDS011;69407;44.966;19.622;2023-05-17T02:11:47;14.38;;;7.22;;
80101;SDS011;69407;44.966;19.622;2023-05-17T02:14:12;12.57;;;6.82;;
80101;SDS011;69407;44.966;19.622;2023-05-17T02:16:38;16.55;;;6.75;;
80101;SDS011;69407;44.966;19.622;2023-05-17T02:19:03;12.85;;;6.18;;
80101;SDS011;69407;44.966;19.622;2023-05-17T02:21:29;10.23;;;5.70;;
80101;SDS011;69407;44.966;19.622;2023-05-17T02:23:54;9.35;;;5.28;;
80101;SDS011;69407;44.966;19.622;2023-05-17T02:26:19;9.60;;;5.75;;
80101;SDS011;69407;44.966;19.622;2023-05-17T02:28:45;9.60;;;5.72;;
80101;SDS011;69407;44.966;19.622;2023-05-17T02:31:10;10.85;;;5.00;;
80101;SDS011;69407;44.966;19.622;2023-05-17T02:33:36;13.45;;;5.10;;
80101;SDS011;69407;44.966;19.622;2023-05-17T02:36:01;11.98;;;4.90;;
80101;SDS011;69407;44.966;19.622;2023-05-17T02:38:27;10.50;;;4.53;;
80101;SDS011;69407;44.966;19.622;2023-05-17T02:40:52;12.40;;;4.28;;
80101;SDS011;69407;44.966;19.622;2023-05-17T02:43:18;9.15;;;3.22;;
80101;SDS011;69407;44.966;19.622;2023-05-17T02:45:43;7.00;;;3.60;;
80101;SDS011;69407;44.966;19.622;2023-05-17T02:48:09;13.18;;;4.03;;
80101;SDS011;69407;44.966;19.622;2023-05-17T02:50:35;13.15;;;4.35;;
80101;SDS011;69407;44.966;19.622;2023-05-17T02:53:00;10.70;;;3.05;;
80101;SDS011;69407;44.966;19.622;2023-05-17T02:55:25;9.63;;;2.67;;
80101;SDS011;69407;44.966;19.622;2023-05-17T02:57:51;6.32;;;2.47;;
80101;SDS011;69407;44.966;19.622;2023-05-17T03:00:16;6.60;;;2.42;;
80101;SDS011;69407;44.966;19.622;2023-05-17T03:02:42;8.57;;;2.35;;
80101;SDS011;69407;44.966;19.622;2023-05-17T03:05:08;5.70;;;2.53;;
80101;SDS011;69407;44.966;19.622;2023-05-17T03:07:34;7.00;;;2.03;;
80101;SDS011;69407;44.966;19.622;2023-05-17T03:10:00;8.68;;;2.55;;
80101;SDS011;69407;44.966;19.622;2023-05-17T03:12:25;7.68;;;2.70;;
80101;SDS011;69407;44.966;19.622;2023-05-17T03:14:51;7.60;;;3.03;;
80101;SDS011;69407;44.966;19.622;2023-05-17T03:17:16;11.30;;;3.50;;
80101;SDS011;69407;44.966;19.622;2023-05-17T03:19:42;5.13;;;2.63;;
80101;SDS011;69407;44.966;19.622;2023-05-17T03:22:07;8.32;;;3.22;;
80101;SDS011;69407;44.966;19.622;2023-05-17T03:24:33;8.77;;;4.00;;
80101;SDS011;69407;44.966;19.622;2023-05-17T03:26:58;8.50;;;3.33;;
80101;SDS011;69407;44.966;19.622;2023-05-17T03:29:24;7.55;;;2.50;;
80101;SDS011;69407;44.966;19.622;2023-05-17T03:31:49;7.88;;;2.40;;
80101;SDS011;69407;44.966;19.622;2023-05-17T03:34:15;7.28;;;2.85;;
80101;SDS011;69407;44.966;19.622;2023-05-17T03:36:40;7.07;;;2.30;;
80101;SDS011;69407;44.966;19.622;2023-05-17T03:39:07;9.57;;;2.60;;
80101;SDS011;69407;44.966;19.622;2023-05-17T03:41:32;5.72;;;3.08;;
80101;SDS011;69407;44.966;19.622;2023-05-17T03:43:58;6.80;;;3.08;;
80101;SDS011;69407;44.966;19.622;2023-05-17T03:46:24;9.07;;;2.28;;
80101;SDS011;69407;44.966;19.622;2023-05-17T03:48:49;7.97;;;2.53;;
80101;SDS011;69407;44.966;19.622;2023-05-17T03:51:15;5.70;;;2.28;;
80101;SDS011;69407;44.966;19.622;2023-05-17T03:53:40;5.60;;;2.35;;
80101;SDS011;69407;44.966;19.622;2023-05-17T03:56:07;7.70;;;2.28;;
80101;SDS011;69407;44.966;19.622;2023-05-17T03:58:33;7.30;;;2.47;;
80101;SDS011;69407;44.966;19.622;2023-05-17T04:00:59;7.82;;;2.35;;
80101;SDS011;69407;44.966;19.622;2023-05-17T04:03:24;9.20;;;2.38;;
80101;SDS011;69407;44.966;19.622;2023-05-17T04:05:50;7.53;;;2.88;;
80101;SDS011;69407;44.966;19.622;2023-05-17T04:08:15;10.68;;;2.20;;
80101;SDS011;69407;44.966;19.622;2023-05-17T04:10:41;7.88;;;2.10;;
80101;SDS011;69407;44.966;19.622;2023-05-17T04:13:07;10.80;;;2.55;;
80101;SDS011;69407;44.966;19.622;2023-05-17T04:15:33;4.35;;;2.00;;
80101;SDS011;69407;44.966;19.622;2023-05-17T04:17:59;4.65;;;2.03;;
80101;SDS011;69407;44.966;19.622;2023-05-17T04:20:25;8.43;;;2.33;;
80101;SDS011;69407;44.966;19.622;2023-05-17T04:22:50;7.82;;;3.25;;
80101;SDS011;69407;44.966;19.622;2023-05-17T04:25:16;8.48;;;2.00;;
80101;SDS011;69407;44.966;19.622;2023-05-17T04:27:42;6.13;;;2.00;;
80101;SDS011;69407;44.966;19.622;2023-05-17T04:30:10;7.57;;;3.17;;
80101;SDS011;69407;44.966;19.622;2023-05-17T04:32:36;14.85;;;3.47;;
80101;SDS011;69407;44.966;19.622;2023-05-17T04:35:01;9.65;;;2.55;;
80101;SDS011;69407;44.966;19.622;2023-05-17T04:37:27;9.00;;;2.13;;
80101;SDS011;69407;44.966;19.622;2023-05-17T04:39:52;10.07;;;3.15;;
80101;SDS011;69407;44.966;19.622;2023-05-17T04:42:18;8.50;;;2.75;;
80101;SDS011;69407;44.966;19.622;2023-05-17T04:44:44;7.13;;;2.92;;
80101;SDS011;69407;44.966;19.622;2023-05-17T04:47:09;8.88;;;2.85;;
80101;SDS011;69407;44.966;19.622;2023-05-17T04:49:35;8.55;;;2.85;;
80101;SDS011;69407;44.966;19.622;2023-05-17T04:52:01;7.38;;;2.40;;
80101;SDS011;69407;44.966;19.622;2023-05-17T04:54:26;10.15;;;2.50;;
80101;SDS011;69407;44.966;19.622;2023-05-17T04:56:52;7.75;;;2.83;;
80101;SDS011;69407;44.966;19.622;2023-05-17T04:59:17;7.00;;;2.20;;
80101;SDS011;69407;44.966;19.622;2023-05-17T05:01:43;6.47;;;2.53;;
80101;SDS011;69407;44.966;19.622;2023-05-17T05:04:08;5.18;;;1.98;;
80101;SDS011;69407;44.966;19.622;2023-05-17T05:06:34;10.40;;;2.40;;
80101;SDS011;69407;44.966;19.622;2023-05-17T05:09:00;15.57;;;2.72;;
80101;SDS011;69407;44.966;19.622;2023-05-17T05:11:26;10.55;;;2.75;;
80101;SDS011;69407;44.966;19.622;2023-05-17T05:13:51;6.47;;;1.75;;
80101;SDS011;69407;44.966;19.622;2023-05-17T05:16:16;7.00;;;2.53;;
80101;SDS011;69407;44.966;19.622;2023-05-17T05:18:42;8.20;;;2.25;;
80101;SDS011;69407;44.966;19.622;2023-05-17T05:21:07;4.65;;;2.17;;
80101;SDS011;69407;44.966;19.622;2023-05-17T05:23:33;7.55;;;2.50;;
80101;SDS011;69407;44.966;19.622;2023-05-17T05:25:58;6.15;;;2.67;;
80101;SDS011;69407;44.966;19.622;2023-05-17T05:28:24;5.45;;;2.15;;
80101;SDS011;69407;44.966;19.622;2023-05-17T05:30:49;5.80;;;1.60;;
80101;SDS011;69407;44.966;19.622;2023-05-17T05:33:15;6.65;;;1.80;;
80101;SDS011;69407;44.966;19.622;2023-05-17T05:35:40;5.88;;;1.73;;
80101;SDS011;69407;44.966;19.622;2023-05-17T05:38:06;8.65;;;2.40;;
80101;SDS011;69407;44.966;19.622;2023-05-17T05:40:31;9.25;;;1.80;;
80101;SDS011;69407;44.966;19.622;2023-05-17T05:42:57;6.35;;;2.05;;
80101;SDS011;69407;44.966;19.622;2023-05-17T05:45:22;7.07;;;1.42;;
80101;SDS011;69407;44.966;19.622;2023-05-17T05:47:48;6.80;;;1.90;;
80101;SDS011;69407;44.966;19.622;2023-05-17T05:50:13;8.95;;;1.65;;
80101;SDS011;69407;44.966;19.622;2023-05-17T05:52:39;5.13;;;1.48;;
80101;SDS011;69407;44.966;19.622;2023-05-17T05:55:05;8.02;;;1.83;;
80101;SDS011;69407;44.966;19.622;2023-05-17T05:57:31;10.10;;;1.88;;
80101;SDS011;69407;44.966;19.622;2023-05-17T05:59:56;6.70;;;1.25;;
80101;SDS011;69407;44.966;19.622;2023-05-17T06:02:22;4.65;;;1.40;;
80101;SDS011;69407;44.966;19.622;2023-05-17T06:04:47;6.50;;;1.10;;
80101;SDS011;69407;44.966;19.622;2023-05-17T06:07:13;7.35;;;1.20;;
80101;SDS011;69407;44.966;19.622;2023-05-17T06:09:39;8.32;;;1.38;;
80101;SDS011;69407;44.966;19.622;2023-05-17T06:12:05;6.32;;;0.90;;
80101;SDS011;69407;44.966;19.622;2023-05-17T06:14:31;6.35;;;1.33;;
80101;SDS011;69407;44.966;19.622;2023-05-17T06:16:56;4.20;;;1.10;;
80101;SDS011;69407;44.966;19.622;2023-05-17T06:19:22;9.77;;;1.23;;
80101;SDS011;69407;44.966;19.622;2023-05-17T06:21:47;6.05;;;1.85;;
80101;SDS011;69407;44.966;19.622;2023-05-17T06:24:13;6.18;;;1.15;;
80101;SDS011;69407;44.966;19.622;2023-05-17T06:26:39;11.05;;;1.85;;
80101;SDS011;69407;44.966;19.622;2023-05-17T06:29:05;5.18;;;1.55;;
80101;SDS011;69407;44.966;19.622;2023-05-17T06:31:30;6.15;;;0.90;;
80101;SDS011;69407;44.966;19.622;2023-05-17T06:33:56;5.97;;;0.70;;
80101;SDS011;69407;44.966;19.622;2023-05-17T06:36:21;6.63;;;1.45;;
80101;SDS011;69407;44.966;19.622;2023-05-17T06:38:47;5.57;;;1.05;;
80101;SDS011;69407;44.966;19.622;2023-05-17T06:41:13;4.60;;;0.98;;
80101;SDS011;69407;44.966;19.622;2023-05-17T06:43:38;3.67;;;0.63;;
80101;SDS011;69407;44.966;19.622;2023-05-17T06:46:04;3.58;;;0.77;;
80101;SDS011;69407;44.966;19.622;2023-05-17T06:48:29;6.78;;;0.93;;
80101;SDS011;69407;44.966;19.622;2023-05-17T06:50:55;7.30;;;0.90;;
80101;SDS011;69407;44.966;19.622;2023-05-17T06:53:20;4.25;;;0.70;;
80101;SDS011;69407;44.966;19.622;2023-05-17T06:55:48;5.82;;;1.50;;
80101;SDS011;69407;44.966;19.622;2023-05-17T06:58:13;3.88;;;0.68;;
80101;SDS011;69407;44.966;19.622;2023-05-17T07:00:39;8.50;;;1.45;;
80101;SDS011;69407;44.966;19.622;2023-05-17T07:03:05;6.82;;;1.65;;
80101;SDS011;69407;44.966;19.622;2023-05-17T07:05:30;6.05;;;1.27;;
80101;SDS011;69407;44.966;19.622;2023-05-17T07:07:57;3.95;;;0.80;;
80101;SDS011;69407;44.966;19.622;2023-05-17T07:10:23;4.72;;;1.13;;
80101;SDS011;69407;44.966;19.622;2023-05-17T07:12:48;6.75;;;1.15;;
80101;SDS011;69407;44.966;19.622;2023-05-17T07:15:14;4.72;;;1.48;;
80101;SDS011;69407;44.966;19.622;2023-05-17T07:17:39;5.97;;;1.00;;
80101;SDS011;69407;44.966;19.622;2023-05-17T07:20:05;7.40;;;0.93;;
80101;SDS011;69407;44.966;19.622;2023-05-17T07:22:31;5.38;;;1.05;;
80101;SDS011;69407;44.966;19.622;2023-05-17T07:24:57;6.35;;;1.02;;
80101;SDS011;69407;44.966;19.622;2023-05-17T07:27:22;6.50;;;1.33;;
80101;SDS011;69407;44.966;19.622;2023-05-17T07:29:48;6.15;;;1.27;;
80101;SDS011;69407;44.966;19.622;2023-05-17T07:32:13;6.78;;;0.82;;
80101;SDS011;69407;44.966;19.622;2023-05-17T07:34:40;4.88;;;0.80;;
80101;SDS011;69407;44.966;19.622;2023-05-17T07:37:05;6.38;;;1.30;;
80101;SDS011;69407;44.966;19.622;2023-05-17T07:39:31;4.88;;;1.05;;
80101;SDS011;69407;44.966;19.622;2023-05-17T07:41:56;7.53;;;0.95;;
80101;SDS011;69407;44.966;19.622;2023-05-17T07:44:22;4.63;;;0.95;;
80101;SDS011;69407;44.966;19.622;2023-05-17T07:46:47;6.00;;;1.00;;
80101;SDS011;69407;44.966;19.622;2023-05-17T07:49:13;5.97;;;1.50;;
80101;SDS011;69407;44.966;19.622;2023-05-17T07:51:39;7.13;;;1.35;;
80101;SDS011;69407;44.966;19.622;2023-05-17T07:54:04;4.93;;;0.90;;
80101;SDS011;69407;44.966;19.622;2023-05-17T07:56:30;4.75;;;0.77;;
80101;SDS011;69407;44.966;19.622;2023-05-17T07:58:55;4.15;;;1.05;;
80101;SDS011;69407;44.966;19.622;2023-05-17T08:01:21;6.78;;;2.10;;
80101;SDS011;69407;44.966;19.622;2023-05-17T08:03:47;5.05;;;1.63;;
80101;SDS011;69407;44.966;19.622;2023-05-17T08:06:14;6.35;;;2.15;;
80101;SDS011;69407;44.966;19.622;2023-05-17T08:08:40;6.78;;;2.42;;
80101;SDS011;69407;44.966;19.622;2023-05-17T08:11:06;6.07;;;2.42;;
80101;SDS011;69407;44.966;19.622;2023-05-17T08:13:31;4.65;;;2.15;;
80101;SDS011;69407;44.966;19.622;2023-05-17T08:15:57;3.95;;;3.13;;
80101;SDS011;69407;44.966;19.622;2023-05-17T08:18:27;7.28;;;2.97;;
80101;SDS011;69407;44.966;19.622;2023-05-17T08:20:56;7.60;;;2.15;;
80101;SDS011;69407;44.966;19.622;2023-05-17T08:23:21;6.45;;;2.63;;
80101;SDS011;69407;44.966;19.622;2023-05-17T08:25:47;6.72;;;1.10;;
80101;SDS011;69407;44.966;19.622;2023-05-17T08:28:12;4.95;;;0.50;;
80101;SDS011;69407;44.966;19.622;2023-05-17T08:30:38;6.63;;;1.05;;
80101;SDS011;69407;44.966;19.622;2023-05-17T08:33:03;6.57;;;1.27;;
80101;SDS011;69407;44.966;19.622;2023-05-17T08:35:29;5.22;;;1.52;;
80101;SDS011;69407;44.966;19.622;2023-05-17T08:37:55;5.63;;;1.48;;
80101;SDS011;69407;44.966;19.622;2023-05-17T08:40:21;4.63;;;1.40;;
80101;SDS011;69407;44.966;19.622;2023-05-17T08:42:47;6.15;;;1.33;;
80101;SDS011;69407;44.966;19.622;2023-05-17T08:45:14;4.55;;;1.52;;
80101;SDS011;69407;44.966;19.622;2023-05-17T08:47:40;8.15;;;1.50;;
80101;SDS011;69407;44.966;19.622;2023-05-17T08:50:07;7.55;;;0.90;;
80101;SDS011;69407;44.966;19.622;2023-05-17T08:52:33;4.45;;;1.20;;
80101;SDS011;69407;44.966;19.622;2023-05-17T08:55:01;4.70;;;0.93;;
80101;SDS011;69407;44.966;19.622;2023-05-17T08:57:30;4.90;;;1.85;;
80101;SDS011;69407;44.966;19.622;2023-05-17T08:59:57;6.38;;;1.40;;
80101;SDS011;69407;44.966;19.622;2023-05-17T09:02:28;9.77;;;2.08;;
80101;SDS011;69407;44.966;19.622;2023-05-17T09:04:55;4.68;;;2.28;;
80101;SDS011;69407;44.966;19.622;2023-05-17T09:07:21;6.20;;;2.72;;
80101;SDS011;69407;44.966;19.622;2023-05-17T09:09:49;8.90;;;2.53;;
80101;SDS011;69407;44.966;19.622;2023-05-17T09:12:17;4.07;;;1.92;;
80101;SDS011;69407;44.966;19.622;2023-05-17T09:14:42;4.30;;;1.70;;
80101;SDS011;69407;44.966;19.622;2023-05-17T09:17:08;6.25;;;2.42;;
80101;SDS011;69407;44.966;19.622;2023-05-17T09:19:42;6.50;;;2.47;;
80101;SDS011;69407;44.966;19.622;2023-05-17T09:22:10;11.88;;;3.15;;
80101;SDS011;69407;44.966;19.622;2023-05-17T09:24:38;5.40;;;2.22;;
80101;SDS011;69407;44.966;19.622;2023-05-17T09:29:30;5.57;;;2.63;;
80101;SDS011;69407;44.966;19.622;2023-05-17T09:31:57;3.92;;;2.33;;
80101;SDS011;69407;44.966;19.622;2023-05-17T09:34:37;6.88;;;2.20;;
80101;SDS011;69407;44.966;19.622;2023-05-17T09:37:05;6.72;;;2.70;;
80101;SDS011;69407;44.966;19.622;2023-05-17T09:39:31;5.05;;;1.90;;
80101;SDS011;69407;44.966;19.622;2023-05-17T09:41:56;6.32;;;2.75;;
80101;SDS011;69407;44.966;19.622;2023-05-17T09:44:23;9.43;;;2.13;;
80101;SDS011;69407;44.966;19.622;2023-05-17T09:46:49;6.35;;;2.03;;
80101;SDS011;69407;44.966;19.622;2023-05-17T09:49:15;4.43;;;1.98;;
80101;SDS011;69407;44.966;19.622;2023-05-17T09:51:42;5.97;;;2.00;;
80101;SDS011;69407;44.966;19.622;2023-05-17T09:54:10;4.93;;;1.30;;
80101;SDS011;69407;44.966;19.622;2023-05-17T09:56:35;6.30;;;1.70;;
80101;SDS011;69407;44.966;19.622;2023-05-17T09:59:01;4.68;;;0.93;;
80101;SDS011;69407;44.966;19.622;2023-05-17T10:01:28;6.47;;;1.08;;
80101;SDS011;69407;44.966;19.622;2023-05-17T10:03:58;6.03;;;1.52;;
80101;SDS011;69407;44.966;19.622;2023-05-17T10:06:28;6.82;;;1.90;;
80101;SDS011;69407;44.966;19.622;2023-05-17T10:11:23;5.07;;;1.88;;
80101;SDS011;69407;44.966;19.622;2023-05-17T10:16:34;8.23;;;2.65;;
80101;SDS011;69407;44.966;19.622;2023-05-17T10:19:01;9.55;;;2.92;;
80101;SDS011;69407;44.966;19.622;2023-05-17T10:21:28;5.97;;;2.60;;
80101;SDS011;69407;44.966;19.622;2023-05-17T10:26:21;13.20;;;3.03;;
80101;SDS011;69407;44.966;19.622;2023-05-17T10:28:47;7.97;;;1.98;;
80101;SDS011;69407;44.966;19.622;2023-05-17T10:31:16;10.90;;;3.15;;
80101;SDS011;69407;44.966;19.622;2023-05-17T10:33:42;18.75;;;3.45;;
80101;SDS011;69407;44.966;19.622;2023-05-17T10:36:11;7.95;;;3.65;;
80101;SDS011;69407;44.966;19.622;2023-05-17T10:38:41;7.07;;;3.58;;
80101;SDS011;69407;44.966;19.622;2023-05-17T10:41:07;8.60;;;2.70;;
80101;SDS011;69407;44.966;19.622;2023-05-17T10:43:34;11.73;;;2.97;;
80101;SDS011;69407;44.966;19.622;2023-05-17T10:46:02;6.00;;;2.30;;
80101;SDS011;69407;44.966;19.622;2023-05-17T10:48:28;4.13;;;1.83;;
80101;SDS011;69407;44.966;19.622;2023-05-17T10:50:55;11.75;;;1.92;;
80101;SDS011;69407;44.966;19.622;2023-05-17T10:53:20;7.43;;;1.80;;
80101;SDS011;69407;44.966;19.622;2023-05-17T10:55:46;6.07;;;1.90;;
80101;SDS011;69407;44.966;19.622;2023-05-17T10:58:13;5.90;;;1.30;;
80101;SDS011;69407;44.966;19.622;2023-05-17T11:00:44;6.68;;;1.45;;
80101;SDS011;69407;44.966;19.622;2023-05-17T11:03:20;5.25;;;2.00;;
80101;SDS011;69407;44.966;19.622;2023-05-17T11:08:41;3.67;;;1.20;;
80101;SDS011;69407;44.966;19.622;2023-05-17T11:13:43;8.23;;;2.25;;
80101;SDS011;69407;44.966;19.622;2023-05-17T11:16:12;5.80;;;1.40;;
80101;SDS011;69407;44.966;19.622;2023-05-17T11:18:50;4.65;;;1.83;;
80101;SDS011;69407;44.966;19.622;2023-05-17T11:21:17;4.15;;;1.90;;
80101;SDS011;69407;44.966;19.622;2023-05-17T11:23:44;6.53;;;2.22;;
80101;SDS011;69407;44.966;19.622;2023-05-17T11:28:47;6.32;;;1.38;;
80101;SDS011;69407;44.966;19.622;2023-05-17T11:31:13;5.15;;;1.77;;
80101;SDS011;69407;44.966;19.622;2023-05-17T11:33:42;5.80;;;1.60;;
80101;SDS011;69407;44.966;19.622;2023-05-17T11:36:19;8.52;;;2.17;;
80101;SDS011;69407;44.966;19.622;2023-05-17T11:38:47;4.28;;;1.50;;
80101;SDS011;69407;44.966;19.622;2023-05-17T11:41:19;3.20;;;1.38;;
80101;SDS011;69407;44.966;19.622;2023-05-17T11:43:46;1.67;;;0.77;;
80101;SDS011;69407;44.966;19.622;2023-05-17T11:46:21;8.00;;;2.08;;
80101;SDS011;69407;44.966;19.622;2023-05-17T11:48:50;5.07;;;1.75;;
80101;SDS011;69407;44.966;19.622;2023-05-17T11:51:17;3.38;;;1.05;;
80101;SDS011;69407;44.966;19.622;2023-05-17T11:53:44;6.25;;;1.48;;
80101;SDS011;69407;44.966;19.622;2023-05-17T11:56:11;6.20;;;1.92;;
80101;SDS011;69407;44.966;19.622;2023-05-17T11:58:37;5.63;;;1.48;;
80101;SDS011;69407;44.966;19.622;2023-05-17T12:01:03;5.63;;;1.05;;
80101;SDS011;69407;44.966;19.622;2023-05-17T12:03:30;5.88;;;0.68;;
80101;SDS011;69407;44.966;19.622;2023-05-17T12:06:07;3.58;;;0.77;;
80101;SDS011;69407;44.966;19.622;2023-05-17T12:08:34;5.15;;;1.02;;
80101;SDS011;69407;44.966;19.622;2023-05-17T12:11:02;3.28;;;0.93;;
80101;SDS011;69407;44.966;19.622;2023-05-17T12:13:29;4.65;;;0.80;;
80101;SDS011;69407;44.966;19.622;2023-05-17T12:16:00;5.30;;;1.38;;
80101;SDS011;69407;44.966;19.622;2023-05-17T12:18:36;4.10;;;0.70;;
80101;SDS011;69407;44.966;19.622;2023-05-17T12:21:09;7.13;;;3.95;;
80101;SDS011;69407;44.966;19.622;2023-05-17T12:23:38;6.90;;;0.98;;
80101;SDS011;69407;44.966;19.622;2023-05-17T12:28:32;6.82;;;2.25;;
80101;SDS011;69407;44.966;19.622;2023-05-17T12:30:57;7.18;;;2.17;;
80101;SDS011;69407;44.966;19.622;2023-05-17T12:33:31;5.50;;;1.45;;
80101;SDS011;69407;44.966;19.622;2023-05-17T12:36:00;5.15;;;1.30;;
80101;SDS011;69407;44.966;19.622;2023-05-17T12:38:27;6.20;;;1.20;;
80101;SDS011;69407;44.966;19.622;2023-05-17T12:40:56;5.63;;;1.00;;
80101;SDS011;69407;44.966;19.622;2023-05-17T12:43:23;29.02;;;23.60;;
80101;SDS011;69407;44.966;19.622;2023-05-17T12:45:49;15.23;;;7.63;;
80101;SDS011;69407;44.966;19.622;2023-05-17T12:48:16;7.55;;;1.98;;
80101;SDS011;69407;44.966;19.622;2023-05-17T12:50:41;4.75;;;1.10;;
80101;SDS011;69407;44.966;19.622;2023-05-17T12:53:12;2.97;;;0.52;;
80101;SDS011;69407;44.966;19.622;2023-05-17T12:55:38;7.10;;;1.15;;
80101;SDS011;69407;44.966;19.622;2023-05-17T12:58:04;2.40;;;0.32;;
80101;SDS011;69407;44.966;19.622;2023-05-17T13:00:29;7.90;;;0.63;;
80101;SDS011;69407;44.966;19.622;2023-05-17T13:02:55;8.38;;;3.65;;
80101;SDS011;69407;44.966;19.622;2023-05-17T13:05:24;7.07;;;2.33;;
80101;SDS011;69407;44.966;19.622;2023-05-17T13:07:54;8.88;;;4.95;;
80101;SDS011;69407;44.966;19.622;2023-05-17T13:12:58;3.78;;;0.68;;
80101;SDS011;69407;44.966;19.622;2023-05-17T13:15:31;8.80;;;1.00;;
80101;SDS011;69407;44.966;19.622;2023-05-17T13:17:58;7.50;;;1.35;;
80101;SDS011;69407;44.966;19.622;2023-05-17T13:20:25;3.75;;;0.70;;
80101;SDS011;69407;44.966;19.622;2023-05-17T13:22:51;2.75;;;0.30;;
80101;SDS011;69407;44.966;19.622;2023-05-17T13:25:17;5.40;;;1.05;;
80101;SDS011;69407;44.966;19.622;2023-05-17T13:27:44;2.67;;;0.50;;
80101;SDS011;69407;44.966;19.622;2023-05-17T13:30:12;3.55;;;0.80;;
80101;SDS011;69407;44.966;19.622;2023-05-17T13:35:05;4.38;;;0.70;;
80101;SDS011;69407;44.966;19.622;2023-05-17T13:37:31;3.53;;;0.77;;
80101;SDS011;69407;44.966;19.622;2023-05-17T13:39:56;2.80;;;0.80;;
80101;SDS011;69407;44.966;19.622;2023-05-17T13:42:22;3.13;;;0.70;;
80101;SDS011;69407;44.966;19.622;2023-05-17T13:44:47;3.28;;;0.80;;
80101;SDS011;69407;44.966;19.622;2023-05-17T13:47:13;6.03;;;0.68;;
80101;SDS011;69407;44.966;19.622;2023-05-17T13:49:39;3.08;;;0.43;;
80101;SDS011;69407;44.966;19.622;2023-05-17T13:52:05;2.72;;;0.60;;
80101;SDS011;69407;44.966;19.622;2023-05-17T13:54:36;4.53;;;1.02;;
80101;SDS011;69407;44.966;19.622;2023-05-17T13:57:02;9.82;;;0.93;;
80101;SDS011;69407;44.966;19.622;2023-05-17T13:59:28;7.75;;;0.93;;
80101;SDS011;69407;44.966;19.622;2023-05-17T14:01:54;3.75;;;1.10;;
80101;SDS011;69407;44.966;19.622;2023-05-17T14:04:19;11.88;;;3.40;;
80101;SDS011;69407;44.966;19.622;2023-05-17T14:06:45;5.60;;;1.40;;
80101;SDS011;69407;44.966;19.622;2023-05-17T14:09:10;4.32;;;0.75;;
80101;SDS011;69407;44.966;19.622;2023-05-17T14:11:36;5.35;;;0.82;;
80101;SDS011;69407;44.966;19.622;2023-05-17T14:14:03;8.18;;;0.82;;
80101;SDS011;69407;44.966;19.622;2023-05-17T14:16:28;3.42;;;0.70;;
80101;SDS011;69407;44.966;19.622;2023-05-17T14:18:54;2.13;;;0.57;;
80101;SDS011;69407;44.966;19.622;2023-05-17T14:21:19;5.80;;;0.75;;
80101;SDS011;69407;44.966;19.622;2023-05-17T14:23:45;2.88;;;0.82;;
80101;SDS011;69407;44.966;19.622;2023-05-17T14:26:10;6.75;;;0.77;;
80101;SDS011;69407;44.966;19.622;2023-05-17T14:28:36;3.20;;;1.00;;
80101;SDS011;69407;44.966;19.622;2023-05-17T14:31:03;6.25;;;0.93;;
80101;SDS011;69407;44.966;19.622;2023-05-17T14:33:32;2.15;;;0.85;;
80101;SDS011;69407;44.966;19.622;2023-05-17T14:35:58;4.28;;;1.27;;
80101;SDS011;69407;44.966;19.622;2023-05-17T14:38:24;2.38;;;1.08;;
80101;SDS011;69407;44.966;19.622;2023-05-17T14:40:50;7.68;;;1.60;;
80101;SDS011;69407;44.966;19.622;2023-05-17T14:43:16;7.18;;;1.48;;
80101;SDS011;69407;44.966;19.622;2023-05-17T14:45:41;6.80;;;1.25;;
80101;SDS011;69407;44.966;19.622;2023-05-17T14:48:07;7.35;;;1.13;;
80101;SDS011;69407;44.966;19.622;2023-05-17T14:50:33;6.78;;;1.30;;
80101;SDS011;69407;44.966;19.622;2023-05-17T14:52:58;5.65;;;1.85;;
80101;SDS011;69407;44.966;19.622;2023-05-17T14:55:24;5.68;;;1.52;;
80101;SDS011;69407;44.966;19.622;2023-05-17T14:57:52;8.05;;;1.85;;
80101;SDS011;69407;44.966;19.622;2023-05-17T15:00:20;4.85;;;1.10;;
80101;SDS011;69407;44.966;19.622;2023-05-17T15:05:11;4.75;;;1.83;;
80101;SDS011;69407;44.966;19.622;2023-05-17T15:07:37;8.00;;;1.95;;
80101;SDS011;69407;44.966;19.622;2023-05-17T15:10:03;10.38;;;2.40;;
80101;SDS011;69407;44.966;19.622;2023-05-17T15:12:29;10.02;;;1.92;;